sensor_id;sensor_type;location;lat;lon;timestamp;temperature;humidity
79018;DHT22;69817;44.694;37.774;2023-05-08T00:00:24;27.38;41.87
79018;DHT22;69817;44.694;37.774;2023-05-08T00:01:29;27.37;41.94
79018;DHT22;69817;44.694;37.774;2023-05-08T00:02:31;27.36;41.94
79018;DHT22;69817;44.694;37.774;2023-05-08T00:03:33;27.37;41.92
79018;DHT22;69817;44.694;37.774;2023-05-08T00:04:35;27.36;41.99
79018;DHT22;69817;44.694;37.774;2023-05-08T00:05:37;27.36;41.87
79018;DHT22;69817;44.694;37.774;2023-05-08T00:06:38;27.35;41.87
79018;DHT22;69817;44.694;37.774;2023-05-08T00:07:40;27.35;41.83
79018;DHT22;69817;44.694;37.774;2023-05-08T00:08:42;27.36;41.94
79018;DHT22;69817;44.694;37.774;2023-05-08T00:09:44;27.34;42.02
79018;DHT22;69817;44.694;37.774;2023-05-08T00:10:46;27.35;41.81
79018;DHT22;69817;44.694;37.774;2023-05-08T00:11:48;27.35;41.87
79018;DHT22;69817;44.694;37.774;2023-05-08T00:12:50;27.34;41.95
79018;DHT22;69817;44.694;37.774;2023-05-08T00:13:52;27.32;41.89
79018;DHT22;69817;44.694;37.774;2023-05-08T00:14:54;27.31;41.93
79018;DHT22;69817;44.694;37.774;2023-05-08T00:15:55;27.31;41.95
79018;DHT22;69817;44.694;37.774;2023-05-08T00:16:57;27.29;42.10
79018;DHT22;69817;44.694;37.774;2023-05-08T00:17:59;27.30;41.90
79018;DHT22;69817;44.694;37.774;2023-05-08T00:19:01;27.29;41.94
79018;DHT22;69817;44.694;37.774;2023-05-08T00:20:03;27.30;42.00
79018;DHT22;69817;44.694;37.774;2023-05-08T00:21:06;27.28;41.97
79018;DHT22;69817;44.694;37.774;2023-05-08T00:22:07;27.27;41.88
79018;DHT22;69817;44.694;37.774;2023-05-08T00:23:09;27.26;41.91
79018;DHT22;69817;44.694;37.774;2023-05-08T00:24:11;27.26;42.03
79018;DHT22;69817;44.694;37.774;2023-05-08T00:25:13;27.26;41.96
79018;DHT22;69817;44.694;37.774;2023-05-08T00:26:15;27.25;42.07
79018;DHT22;69817;44.694;37.774;2023-05-08T00:27:17;27.25;41.87
79018;DHT22;69817;44.694;37.774;2023-05-08T00:28:20;27.23;41.95
79018;DHT22;69817;44.694;37.774;2023-05-08T00:29:21;27.23;41.87
79018;DHT22;69817;44.694;37.774;2023-05-08T00:30:23;27.23;42.00
79018;DHT22;69817;44.694;37.774;2023-05-08T00:31:25;27.21;41.94
79018;DHT22;69817;44.694;37.774;2023-05-08T00:32:27;27.20;41.95
79018;DHT22;69817;44.694;37.774;2023-05-08T00:33:29;27.20;41.99
79018;DHT22;69817;44.694;37.774;2023-05-08T00:34:31;27.21;42.06
79018;DHT22;69817;44.694;37.774;2023-05-08T00:35:33;27.21;42.07
79018;DHT22;69817;44.694;37.774;2023-05-08T00:36:34;27.20;41.93
79018;DHT22;69817;44.694;37.774;2023-05-08T00:37:36;27.19;41.87
79018;DHT22;69817;44.694;37.774;2023-05-08T00:38:41;27.17;41.86
79018;DHT22;69817;44.694;37.774;2023-05-08T00:39:42;27.16;41.83
79018;DHT22;69817;44.694;37.774;2023-05-08T00:40:44;27.19;41.95
79018;DHT22;69817;44.694;37.774;2023-05-08T00:41:46;27.17;41.90
79018;DHT22;69817;44.694;37.774;2023-05-08T00:42:48;27.15;42.13
79018;DHT22;69817;44.694;37.774;2023-05-08T00:43:49;27.16;42.06
79018;DHT22;69817;44.694;37.774;2023-05-08T00:44:52;27.15;42.00
79018;DHT22;69817;44.694;37.774;2023-05-08T00:46:00;27.15;42.07
79018;DHT22;69817;44.694;37.774;2023-05-08T00:47:02;27.15;42.04
79018;DHT22;69817;44.694;37.774;2023-05-08T00:48:04;27.12;41.99
79018;DHT22;69817;44.694;37.774;2023-05-08T00:49:07;27.12;41.96
79018;DHT22;69817;44.694;37.774;2023-05-08T00:50:11;27.12;42.00
79018;DHT22;69817;44.694;37.774;2023-05-08T00:51:14;27.11;42.01
79018;DHT22;69817;44.694;37.774;2023-05-08T00:52:16;27.13;42.03
79018;DHT22;69817;44.694;37.774;2023-05-08T00:53:19;27.10;41.92
79018;DHT22;69817;44.694;37.774;2023-05-08T00:54:23;27.09;41.87
79018;DHT22;69817;44.694;37.774;2023-05-08T00:55:24;27.10;41.92
79018;DHT22;69817;44.694;37.774;2023-05-08T00:56:27;27.09;41.97
79018;DHT22;69817;44.694;37.774;2023-05-08T00:57:33;27.09;41.93
79018;DHT22;69817;44.694;37.774;2023-05-08T00:58:36;27.09;42.13
79018;DHT22;69817;44.694;37.774;2023-05-08T00:59:38;27.09;42.03
79018;DHT22;69817;44.694;37.774;2023-05-08T01:00:43;27.08;42.08
79018;DHT22;69817;44.694;37.774;2023-05-08T01:01:48;27.07;42.07
79018;DHT22;69817;44.694;37.774;2023-05-08T01:02:51;27.07;41.89
79018;DHT22;69817;44.694;37.774;2023-05-08T01:03:53;27.05;41.93
79018;DHT22;69817;44.694;37.774;2023-05-08T01:04:55;27.05;41.96
79018;DHT22;69817;44.694;37.774;2023-05-08T01:05:57;27.06;41.92
79018;DHT22;69817;44.694;37.774;2023-05-08T01:07:00;27.06;41.87
79018;DHT22;69817;44.694;37.774;2023-05-08T01:08:02;27.08;41.88
79018;DHT22;69817;44.694;37.774;2023-05-08T01:09:04;27.05;41.97
79018;DHT22;69817;44.694;37.774;2023-05-08T01:10:07;27.06;41.81
79018;DHT22;69817;44.694;37.774;2023-05-08T01:11:20;27.05;41.87
79018;DHT22;69817;44.694;37.774;2023-05-08T01:15:17;27.01;41.84
79018;DHT22;69817;44.694;37.774;2023-05-08T01:18:10;26.99;41.71
79018;DHT22;69817;44.694;37.774;2023-05-08T01:19:25;26.99;41.80
79018;DHT22;69817;44.694;37.774;2023-05-08T01:21:46;26.97;41.81
79018;DHT22;69817;44.694;37.774;2023-05-08T01:23:55;26.95;41.89
79018;DHT22;69817;44.694;37.774;2023-05-08T01:25:15;26.92;41.81
79018;DHT22;69817;44.694;37.774;2023-05-08T01:28:44;26.89;42.18
79018;DHT22;69817;44.694;37.774;2023-05-08T01:30:37;26.90;42.13
79018;DHT22;69817;44.694;37.774;2023-05-08T01:32:42;26.86;41.98
79018;DHT22;69817;44.694;37.774;2023-05-08T01:36:17;26.85;42.15
79018;DHT22;69817;44.694;37.774;2023-05-08T01:37:28;26.85;42.10
79018;DHT22;69817;44.694;37.774;2023-05-08T01:38:40;26.85;42.14
79018;DHT22;69817;44.694;37.774;2023-05-08T01:39:44;26.84;42.19
79018;DHT22;69817;44.694;37.774;2023-05-08T01:40:59;26.84;42.07
79018;DHT22;69817;44.694;37.774;2023-05-08T01:42:25;26.86;42.05
79018;DHT22;69817;44.694;37.774;2023-05-08T01:44:52;26.84;42.22
79018;DHT22;69817;44.694;37.774;2023-05-08T01:45:56;26.83;42.02
79018;DHT22;69817;44.694;37.774;2023-05-08T01:46:59;26.84;42.23
79018;DHT22;69817;44.694;37.774;2023-05-08T01:48:08;26.83;42.12
79018;DHT22;69817;44.694;37.774;2023-05-08T01:49:25;26.82;42.13
79018;DHT22;69817;44.694;37.774;2023-05-08T01:50:33;26.81;42.16
79018;DHT22;69817;44.694;37.774;2023-05-08T01:51:48;26.82;42.19
79018;DHT22;69817;44.694;37.774;2023-05-08T01:53:06;26.82;42.22
79018;DHT22;69817;44.694;37.774;2023-05-08T01:54:13;26.83;42.13
79018;DHT22;69817;44.694;37.774;2023-05-08T01:55:20;26.84;42.84
79018;DHT22;69817;44.694;37.774;2023-05-08T01:56:27;26.91;43.54
79018;DHT22;69817;44.694;37.774;2023-05-08T01:57:32;26.93;43.55
79018;DHT22;69817;44.694;37.774;2023-05-08T01:58:35;26.96;43.48
79018;DHT22;69817;44.694;37.774;2023-05-08T01:59:40;26.99;43.43
79018;DHT22;69817;44.694;37.774;2023-05-08T02:00:45;27.02;43.48
79018;DHT22;69817;44.694;37.774;2023-05-08T02:01:51;27.05;43.49
79018;DHT22;69817;44.694;37.774;2023-05-08T02:02:55;27.07;43.41
79018;DHT22;69817;44.694;37.774;2023-05-08T02:03:59;27.07;43.48
79018;DHT22;69817;44.694;37.774;2023-05-08T02:05:03;27.09;43.52
79018;DHT22;69817;44.694;37.774;2023-05-08T02:06:08;27.11;43.53
79018;DHT22;69817;44.694;37.774;2023-05-08T02:07:10;27.13;43.58
79018;DHT22;69817;44.694;37.774;2023-05-08T02:08:13;27.12;43.63
79018;DHT22;69817;44.694;37.774;2023-05-08T02:09:16;27.13;43.65
79018;DHT22;69817;44.694;37.774;2023-05-08T02:10:23;27.14;43.69
79018;DHT22;69817;44.694;37.774;2023-05-08T02:11:26;27.15;43.69
79018;DHT22;69817;44.694;37.774;2023-05-08T02:12:30;27.16;43.72
79018;DHT22;69817;44.694;37.774;2023-05-08T02:13:34;27.16;43.75
79018;DHT22;69817;44.694;37.774;2023-05-08T02:14:39;27.16;43.78
79018;DHT22;69817;44.694;37.774;2023-05-08T02:15:42;27.19;43.80
79018;DHT22;69817;44.694;37.774;2023-05-08T02:16:46;27.19;43.83
79018;DHT22;69817;44.694;37.774;2023-05-08T02:17:49;27.20;43.87
79018;DHT22;69817;44.694;37.774;2023-05-08T02:18:54;27.20;43.87
79018;DHT22;69817;44.694;37.774;2023-05-08T02:19:58;27.20;43.92
79018;DHT22;69817;44.694;37.774;2023-05-08T02:21:03;27.21;43.93
79018;DHT22;69817;44.694;37.774;2023-05-08T02:22:07;27.21;43.97
79018;DHT22;69817;44.694;37.774;2023-05-08T02:23:09;27.20;43.98
79018;DHT22;69817;44.694;37.774;2023-05-08T02:24:13;27.21;43.93
79018;DHT22;69817;44.694;37.774;2023-05-08T02:25:16;27.23;44.02
79018;DHT22;69817;44.694;37.774;2023-05-08T02:26:19;27.22;44.08
79018;DHT22;69817;44.694;37.774;2023-05-08T02:27:25;27.22;44.14
79018;DHT22;69817;44.694;37.774;2023-05-08T02:28:29;27.22;44.18
79018;DHT22;69817;44.694;37.774;2023-05-08T02:29:34;27.23;44.20
79018;DHT22;69817;44.694;37.774;2023-05-08T02:30:36;27.23;44.18
79018;DHT22;69817;44.694;37.774;2023-05-08T02:31:41;27.21;44.19
79018;DHT22;69817;44.694;37.774;2023-05-08T02:32:45;27.19;43.14
79018;DHT22;69817;44.694;37.774;2023-05-08T02:33:48;27.17;43.78
79018;DHT22;69817;44.694;37.774;2023-05-08T02:34:54;27.16;43.68
79018;DHT22;69817;44.694;37.774;2023-05-08T02:35:57;27.16;44.11
79018;DHT22;69817;44.694;37.774;2023-05-08T02:36:59;27.19;44.00
79018;DHT22;69817;44.694;37.774;2023-05-08T02:38:04;27.19;43.97
79018;DHT22;69817;44.694;37.774;2023-05-08T02:39:13;27.20;43.99
79018;DHT22;69817;44.694;37.774;2023-05-08T02:40:16;27.20;44.00
79018;DHT22;69817;44.694;37.774;2023-05-08T02:41:20;27.21;43.87
79018;DHT22;69817;44.694;37.774;2023-05-08T02:42:24;27.22;43.86
79018;DHT22;69817;44.694;37.774;2023-05-08T02:43:26;27.22;43.82
79018;DHT22;69817;44.694;37.774;2023-05-08T02:44:28;27.23;43.98
79018;DHT22;69817;44.694;37.774;2023-05-08T02:45:44;27.22;43.99
79018;DHT22;69817;44.694;37.774;2023-05-08T02:47:18;27.24;44.06
79018;DHT22;69817;44.694;37.774;2023-05-08T02:49:51;27.23;44.14
79018;DHT22;69817;44.694;37.774;2023-05-08T02:50:57;27.23;44.14
79018;DHT22;69817;44.694;37.774;2023-05-08T02:52:15;27.22;44.17
79018;DHT22;69817;44.694;37.774;2023-05-08T02:53:25;27.21;44.19
79018;DHT22;69817;44.694;37.774;2023-05-08T02:54:40;27.21;44.19
79018;DHT22;69817;44.694;37.774;2023-05-08T02:55:48;27.23;44.19
79018;DHT22;69817;44.694;37.774;2023-05-08T02:56:57;27.24;44.22
79018;DHT22;69817;44.694;37.774;2023-05-08T02:58:11;27.23;44.19
79018;DHT22;69817;44.694;37.774;2023-05-08T02:59:30;27.24;44.17
79018;DHT22;69817;44.694;37.774;2023-05-08T03:00:59;27.26;44.18
79018;DHT22;69817;44.694;37.774;2023-05-08T03:03:20;27.25;44.15
79018;DHT22;69817;44.694;37.774;2023-05-08T03:04:34;27.26;44.14
79018;DHT22;69817;44.694;37.774;2023-05-08T03:05:37;27.26;44.22
79018;DHT22;69817;44.694;37.774;2023-05-08T03:06:44;27.28;44.04
79018;DHT22;69817;44.694;37.774;2023-05-08T03:07:50;27.28;44.23
79018;DHT22;69817;44.694;37.774;2023-05-08T03:08:56;27.26;44.29
79018;DHT22;69817;44.694;37.774;2023-05-08T03:10:04;27.28;44.29
79018;DHT22;69817;44.694;37.774;2023-05-08T03:11:15;27.28;44.29
79018;DHT22;69817;44.694;37.774;2023-05-08T03:12:22;27.28;44.25
79018;DHT22;69817;44.694;37.774;2023-05-08T03:13:28;27.30;44.29
79018;DHT22;69817;44.694;37.774;2023-05-08T03:14:35;27.29;44.34
79018;DHT22;69817;44.694;37.774;2023-05-08T03:15:41;27.30;44.32
79018;DHT22;69817;44.694;37.774;2023-05-08T03:16:44;27.30;44.29
79018;DHT22;69817;44.694;37.774;2023-05-08T03:17:55;27.31;44.34
79018;DHT22;69817;44.694;37.774;2023-05-08T03:19:00;27.32;44.34
79018;DHT22;69817;44.694;37.774;2023-05-08T03:20:06;27.32;44.35
79018;DHT22;69817;44.694;37.774;2023-05-08T03:21:10;27.32;44.38
79018;DHT22;69817;44.694;37.774;2023-05-08T03:22:14;27.32;44.35
79018;DHT22;69817;44.694;37.774;2023-05-08T03:23:19;27.34;44.39
79018;DHT22;69817;44.694;37.774;2023-05-08T03:24:22;27.32;44.39
79018;DHT22;69817;44.694;37.774;2023-05-08T03:25:25;27.34;44.45
79018;DHT22;69817;44.694;37.774;2023-05-08T03:26:29;27.35;44.48
79018;DHT22;69817;44.694;37.774;2023-05-08T03:27:32;27.34;44.48
79018;DHT22;69817;44.694;37.774;2023-05-08T03:28:34;27.34;44.48
79018;DHT22;69817;44.694;37.774;2023-05-08T03:29:38;27.37;44.47
79018;DHT22;69817;44.694;37.774;2023-05-08T03:30:41;27.37;44.24
79018;DHT22;69817;44.694;37.774;2023-05-08T03:31:47;27.32;44.06
79018;DHT22;69817;44.694;37.774;2023-05-08T03:32:52;27.34;44.45
79018;DHT22;69817;44.694;37.774;2023-05-08T03:33:55;27.34;44.50
79018;DHT22;69817;44.694;37.774;2023-05-08T03:34:58;27.34;44.48
79018;DHT22;69817;44.694;37.774;2023-05-08T03:36:01;27.34;44.57
79018;DHT22;69817;44.694;37.774;2023-05-08T03:37:03;27.36;44.51
79018;DHT22;69817;44.694;37.774;2023-05-08T03:38:06;27.37;44.42
79018;DHT22;69817;44.694;37.774;2023-05-08T03:39:09;27.34;44.68
79018;DHT22;69817;44.694;37.774;2023-05-08T03:40:11;27.35;44.65
79018;DHT22;69817;44.694;37.774;2023-05-08T03:41:13;27.38;44.67
79018;DHT22;69817;44.694;37.774;2023-05-08T03:42:15;27.40;44.67
79018;DHT22;69817;44.694;37.774;2023-05-08T03:43:22;27.40;44.58
79018;DHT22;69817;44.694;37.774;2023-05-08T03:44:25;27.40;44.69
79018;DHT22;69817;44.694;37.774;2023-05-08T03:45:30;27.41;44.68
79018;DHT22;69817;44.694;37.774;2023-05-08T03:46:36;27.42;44.64
79018;DHT22;69817;44.694;37.774;2023-05-08T03:47:39;27.42;44.65
79018;DHT22;69817;44.694;37.774;2023-05-08T03:48:42;27.42;44.64
79018;DHT22;69817;44.694;37.774;2023-05-08T03:49:48;27.43;44.64
79018;DHT22;69817;44.694;37.774;2023-05-08T03:50:50;27.44;44.67
79018;DHT22;69817;44.694;37.774;2023-05-08T03:51:53;27.43;44.65
79018;DHT22;69817;44.694;37.774;2023-05-08T03:52:57;27.43;44.63
79018;DHT22;69817;44.694;37.774;2023-05-08T03:54:00;27.44;44.57
79018;DHT22;69817;44.694;37.774;2023-05-08T03:55:01;27.45;44.53
79018;DHT22;69817;44.694;37.774;2023-05-08T03:56:04;27.44;44.61
79018;DHT22;69817;44.694;37.774;2023-05-08T03:57:07;27.45;44.65
79018;DHT22;69817;44.694;37.774;2023-05-08T04:02:08;27.45;44.83
79018;DHT22;69817;44.694;37.774;2023-05-08T04:03:26;27.43;44.80
79018;DHT22;69817;44.694;37.774;2023-05-08T04:04:40;27.45;45.01
79018;DHT22;69817;44.694;37.774;2023-05-08T04:05:58;27.43;44.80
79018;DHT22;69817;44.694;37.774;2023-05-08T04:07:13;27.44;45.01
79018;DHT22;69817;44.694;37.774;2023-05-08T04:08:27;27.44;44.96
79018;DHT22;69817;44.694;37.774;2023-05-08T04:09:43;27.43;44.99
79018;DHT22;69817;44.694;37.774;2023-05-08T04:11:03;27.43;45.12
79018;DHT22;69817;44.694;37.774;2023-05-08T04:13:12;27.44;45.21
79018;DHT22;69817;44.694;37.774;2023-05-08T04:14:20;27.44;45.21
79018;DHT22;69817;44.694;37.774;2023-05-08T04:15:33;27.45;45.12
79018;DHT22;69817;44.694;37.774;2023-05-08T04:16:47;27.44;44.99
79018;DHT22;69817;44.694;37.774;2023-05-08T04:17:59;27.45;45.22
79018;DHT22;69817;44.694;37.774;2023-05-08T04:19:09;27.44;45.29
79018;DHT22;69817;44.694;37.774;2023-05-08T04:20:16;27.45;45.16
79018;DHT22;69817;44.694;37.774;2023-05-08T04:21:22;27.45;45.22
79018;DHT22;69817;44.694;37.774;2023-05-08T04:22:27;27.45;45.12
79018;DHT22;69817;44.694;37.774;2023-05-08T04:23:30;27.45;45.34
79018;DHT22;69817;44.694;37.774;2023-05-08T04:24:43;27.46;45.23
79018;DHT22;69817;44.694;37.774;2023-05-08T04:25:45;27.46;45.20
79018;DHT22;69817;44.694;37.774;2023-05-08T04:26:49;27.49;45.22
79018;DHT22;69817;44.694;37.774;2023-05-08T04:27:51;27.49;45.35
79018;DHT22;69817;44.694;37.774;2023-05-08T04:28:56;27.47;45.29
79018;DHT22;69817;44.694;37.774;2023-05-08T04:29:58;27.49;45.19
79018;DHT22;69817;44.694;37.774;2023-05-08T04:31:02;27.49;45.22
79018;DHT22;69817;44.694;37.774;2023-05-08T04:32:05;27.47;45.22
79018;DHT22;69817;44.694;37.774;2023-05-08T04:33:09;27.49;45.33
79018;DHT22;69817;44.694;37.774;2023-05-08T04:34:11;27.49;45.45
79018;DHT22;69817;44.694;37.774;2023-05-08T04:35:14;27.47;45.44
79018;DHT22;69817;44.694;37.774;2023-05-08T04:36:16;27.47;45.39
79018;DHT22;69817;44.694;37.774;2023-05-08T04:37:36;27.47;45.35
79018;DHT22;69817;44.694;37.774;2023-05-08T04:38:39;27.49;45.21
79018;DHT22;69817;44.694;37.774;2023-05-08T04:39:41;27.49;45.41
79018;DHT22;69817;44.694;37.774;2023-05-08T04:40:43;27.50;45.42
79018;DHT22;69817;44.694;37.774;2023-05-08T04:41:46;27.49;45.48
79018;DHT22;69817;44.694;37.774;2023-05-08T04:43:07;27.50;45.37
79018;DHT22;69817;44.694;37.774;2023-05-08T04:44:09;27.50;45.56
79018;DHT22;69817;44.694;37.774;2023-05-08T04:45:12;27.49;45.51
79018;DHT22;69817;44.694;37.774;2023-05-08T04:46:14;27.49;45.38
79018;DHT22;69817;44.694;37.774;2023-05-08T04:47:16;27.49;45.35
79018;DHT22;69817;44.694;37.774;2023-05-08T04:48:18;27.49;45.46
79018;DHT22;69817;44.694;37.774;2023-05-08T04:49:20;27.51;45.49
79018;DHT22;69817;44.694;37.774;2023-05-08T04:50:23;27.50;45.67
79018;DHT22;69817;44.694;37.774;2023-05-08T04:51:24;27.50;45.57
79018;DHT22;69817;44.694;37.774;2023-05-08T04:52:27;27.50;45.52
79018;DHT22;69817;44.694;37.774;2023-05-08T04:53:29;27.50;45.83
79018;DHT22;69817;44.694;37.774;2023-05-08T04:54:31;27.51;45.76
79018;DHT22;69817;44.694;37.774;2023-05-08T04:55:33;27.50;45.58
79018;DHT22;69817;44.694;37.774;2023-05-08T04:56:35;27.51;45.62
79018;DHT22;69817;44.694;37.774;2023-05-08T04:57:37;27.51;45.73
79018;DHT22;69817;44.694;37.774;2023-05-08T04:58:39;27.51;45.72
79018;DHT22;69817;44.694;37.774;2023-05-08T04:59:41;27.51;45.70
79018;DHT22;69817;44.694;37.774;2023-05-08T05:00:43;27.52;45.77
79018;DHT22;69817;44.694;37.774;2023-05-08T05:01:46;27.52;45.70
79018;DHT22;69817;44.694;37.774;2023-05-08T05:02:48;27.53;45.72
79018;DHT22;69817;44.694;37.774;2023-05-08T05:03:51;27.51;45.64
79018;DHT22;69817;44.694;37.774;2023-05-08T05:04:53;27.51;45.77
79018;DHT22;69817;44.694;37.774;2023-05-08T05:06:00;27.50;45.83
79018;DHT22;69817;44.694;37.774;2023-05-08T05:07:02;27.51;45.99
79018;DHT22;69817;44.694;37.774;2023-05-08T05:08:09;27.49;45.90
79018;DHT22;69817;44.694;37.774;2023-05-08T05:09:16;27.49;46.08
79018;DHT22;69817;44.694;37.774;2023-05-08T05:10:18;27.50;45.97
79018;DHT22;69817;44.694;37.774;2023-05-08T05:11:21;27.51;45.93
79018;DHT22;69817;44.694;37.774;2023-05-08T05:12:23;27.51;45.97
79018;DHT22;69817;44.694;37.774;2023-05-08T05:13:30;27.51;46.20
79018;DHT22;69817;44.694;37.774;2023-05-08T05:14:36;27.51;46.06
79018;DHT22;69817;44.694;37.774;2023-05-08T05:15:41;27.51;46.21
79018;DHT22;69817;44.694;37.774;2023-05-08T05:16:48;27.52;46.32
79018;DHT22;69817;44.694;37.774;2023-05-08T05:17:50;27.50;46.35
79018;DHT22;69817;44.694;37.774;2023-05-08T05:18:52;27.51;46.20
79018;DHT22;69817;44.694;37.774;2023-05-08T05:19:54;27.51;46.50
79018;DHT22;69817;44.694;37.774;2023-05-08T05:20:57;27.52;46.22
79018;DHT22;69817;44.694;37.774;2023-05-08T05:22:00;27.52;46.29
79018;DHT22;69817;44.694;37.774;2023-05-08T05:23:02;27.52;46.25
79018;DHT22;69817;44.694;37.774;2023-05-08T05:24:05;27.53;46.23
79018;DHT22;69817;44.694;37.774;2023-05-08T05:25:07;27.53;46.22
79018;DHT22;69817;44.694;37.774;2023-05-08T05:26:10;27.51;46.28
79018;DHT22;69817;44.694;37.774;2023-05-08T05:27:12;27.54;46.31
79018;DHT22;69817;44.694;37.774;2023-05-08T05:28:14;27.53;46.08
79018;DHT22;69817;44.694;37.774;2023-05-08T05:29:16;27.53;46.10
79018;DHT22;69817;44.694;37.774;2023-05-08T05:30:18;27.54;46.26
79018;DHT22;69817;44.694;37.774;2023-05-08T05:31:20;27.53;46.33
79018;DHT22;69817;44.694;37.774;2023-05-08T05:32:22;27.54;46.70
79018;DHT22;69817;44.694;37.774;2023-05-08T05:33:24;27.54;47.03
79018;DHT22;69817;44.694;37.774;2023-05-08T05:34:26;27.55;47.12
79018;DHT22;69817;44.694;37.774;2023-05-08T05:35:28;27.55;47.33
79018;DHT22;69817;44.694;37.774;2023-05-08T05:36:31;27.55;47.54
79018;DHT22;69817;44.694;37.774;2023-05-08T05:37:33;27.54;47.75
79018;DHT22;69817;44.694;37.774;2023-05-08T05:38:35;27.55;47.85
79018;DHT22;69817;44.694;37.774;2023-05-08T05:39:37;27.55;48.18
79018;DHT22;69817;44.694;37.774;2023-05-08T05:40:39;27.55;48.34
79018;DHT22;69817;44.694;37.774;2023-05-08T05:41:41;27.55;48.76
79018;DHT22;69817;44.694;37.774;2023-05-08T05:42:48;27.56;48.77
79018;DHT22;69817;44.694;37.774;2023-05-08T05:43:51;27.55;48.90
79018;DHT22;69817;44.694;37.774;2023-05-08T05:44:53;27.56;48.92
79018;DHT22;69817;44.694;37.774;2023-05-08T05:46:05;27.55;50.00
79018;DHT22;69817;44.694;37.774;2023-05-08T05:47:08;27.57;50.21
79018;DHT22;69817;44.694;37.774;2023-05-08T05:48:15;27.54;50.49
79018;DHT22;69817;44.694;37.774;2023-05-08T05:49:16;27.55;50.89
79018;DHT22;69817;44.694;37.774;2023-05-08T05:50:19;27.57;50.73
79018;DHT22;69817;44.694;37.774;2023-05-08T05:51:22;27.56;51.06
79018;DHT22;69817;44.694;37.774;2023-05-08T05:52:24;27.57;51.15
79018;DHT22;69817;44.694;37.774;2023-05-08T05:53:26;27.56;51.41
79018;DHT22;69817;44.694;37.774;2023-05-08T05:54:28;27.57;51.60
79018;DHT22;69817;44.694;37.774;2023-05-08T05:55:30;27.59;51.83
79018;DHT22;69817;44.694;37.774;2023-05-08T05:56:33;27.57;51.93
79018;DHT22;69817;44.694;37.774;2023-05-08T05:57:35;27.57;52.09
79018;DHT22;69817;44.694;37.774;2023-05-08T05:58:37;27.56;52.04
79018;DHT22;69817;44.694;37.774;2023-05-08T05:59:41;27.55;52.42
79018;DHT22;69817;44.694;37.774;2023-05-08T06:00:44;27.54;52.63
79018;DHT22;69817;44.694;37.774;2023-05-08T06:01:46;27.54;52.43
79018;DHT22;69817;44.694;37.774;2023-05-08T06:02:48;27.54;52.72
79018;DHT22;69817;44.694;37.774;2023-05-08T06:03:51;27.54;52.75
79018;DHT22;69817;44.694;37.774;2023-05-08T06:04:53;27.54;52.76
79018;DHT22;69817;44.694;37.774;2023-05-08T06:05:55;27.53;52.69
79018;DHT22;69817;44.694;37.774;2023-05-08T06:06:56;27.52;52.24
79018;DHT22;69817;44.694;37.774;2023-05-08T06:07:58;27.54;52.20
79018;DHT22;69817;44.694;37.774;2023-05-08T06:09:00;27.54;52.08
79018;DHT22;69817;44.694;37.774;2023-05-08T06:10:02;27.53;52.04
79018;DHT22;69817;44.694;37.774;2023-05-08T06:11:04;27.52;52.19
79018;DHT22;69817;44.694;37.774;2023-05-08T06:12:06;27.49;52.17
79018;DHT22;69817;44.694;37.774;2023-05-08T06:13:08;27.47;52.24
79018;DHT22;69817;44.694;37.774;2023-05-08T06:14:11;27.46;52.24
79018;DHT22;69817;44.694;37.774;2023-05-08T06:15:13;27.45;52.30
79018;DHT22;69817;44.694;37.774;2023-05-08T06:16:17;27.44;52.22
79018;DHT22;69817;44.694;37.774;2023-05-08T06:17:21;27.44;52.21
79018;DHT22;69817;44.694;37.774;2023-05-08T06:18:23;27.44;52.18
79018;DHT22;69817;44.694;37.774;2023-05-08T06:19:25;27.43;52.18
79018;DHT22;69817;44.694;37.774;2023-05-08T06:20:28;27.43;51.88
79018;DHT22;69817;44.694;37.774;2023-05-08T06:21:31;27.44;51.82
79018;DHT22;69817;44.694;37.774;2023-05-08T06:22:33;27.46;51.95
79018;DHT22;69817;44.694;37.774;2023-05-08T06:23:54;27.42;51.55
79018;DHT22;69817;44.694;37.774;2023-05-08T06:24:56;27.44;51.97
79018;DHT22;69817;44.694;37.774;2023-05-08T06:25:58;27.44;52.21
79018;DHT22;69817;44.694;37.774;2023-05-08T06:27:00;27.44;52.01
79018;DHT22;69817;44.694;37.774;2023-05-08T06:28:01;27.44;51.99
79018;DHT22;69817;44.694;37.774;2023-05-08T06:29:06;27.45;51.95
79018;DHT22;69817;44.694;37.774;2023-05-08T06:30:09;27.46;51.93
79018;DHT22;69817;44.694;37.774;2023-05-08T06:31:11;27.43;52.11
79018;DHT22;69817;44.694;37.774;2023-05-08T06:32:12;27.45;52.06
79018;DHT22;69817;44.694;37.774;2023-05-08T06:33:14;27.37;45.52
79018;DHT22;69817;44.694;37.774;2023-05-08T06:34:16;27.28;46.25
79018;DHT22;69817;44.694;37.774;2023-05-08T06:35:18;27.29;48.34
79018;DHT22;69817;44.694;37.774;2023-05-08T06:36:20;27.30;47.02
79018;DHT22;69817;44.694;37.774;2023-05-08T06:37:22;27.28;47.91
79018;DHT22;69817;44.694;37.774;2023-05-08T06:38:24;27.29;47.78
79018;DHT22;69817;44.694;37.774;2023-05-08T06:39:26;27.25;46.89
79018;DHT22;69817;44.694;37.774;2023-05-08T06:40:28;27.21;47.24
79018;DHT22;69817;44.694;37.774;2023-05-08T06:41:30;27.16;47.29
79018;DHT22;69817;44.694;37.774;2023-05-08T06:42:32;27.15;46.89
79018;DHT22;69817;44.694;37.774;2023-05-08T06:43:34;27.15;47.20
79018;DHT22;69817;44.694;37.774;2023-05-08T06:44:36;27.09;46.96
79018;DHT22;69817;44.694;37.774;2023-05-08T06:45:38;27.13;47.30
79018;DHT22;69817;44.694;37.774;2023-05-08T06:46:40;27.14;46.99
79018;DHT22;69817;44.694;37.774;2023-05-08T06:47:42;27.10;46.45
79018;DHT22;69817;44.694;37.774;2023-05-08T06:48:44;27.06;46.18
79018;DHT22;69817;44.694;37.774;2023-05-08T06:49:49;26.96;45.98
79018;DHT22;69817;44.694;37.774;2023-05-08T06:50:51;26.94;46.34
79018;DHT22;69817;44.694;37.774;2023-05-08T06:51:53;26.90;46.05
79018;DHT22;69817;44.694;37.774;2023-05-08T06:52:55;26.84;46.54
79018;DHT22;69817;44.694;37.774;2023-05-08T06:53:57;26.91;47.20
79018;DHT22;69817;44.694;37.774;2023-05-08T06:54:58;26.94;46.72
79018;DHT22;69817;44.694;37.774;2023-05-08T06:56:00;26.95;46.74
79018;DHT22;69817;44.694;37.774;2023-05-08T06:57:02;26.97;46.54
79018;DHT22;69817;44.694;37.774;2023-05-08T06:58:04;27.00;46.01
79018;DHT22;69817;44.694;37.774;2023-05-08T06:59:06;26.99;46.47
79018;DHT22;69817;44.694;37.774;2023-05-08T07:00:08;26.98;46.37
79018;DHT22;69817;44.694;37.774;2023-05-08T07:01:12;26.97;46.65
79018;DHT22;69817;44.694;37.774;2023-05-08T07:02:15;26.99;46.21
79018;DHT22;69817;44.694;37.774;2023-05-08T07:03:16;27.00;46.25